Onweer radar Meer informatie blitzortung!


Regen radar Meer informatie rain snow radar


Bezoek onze andere website:

Template documentation
and downloads

And another site



Het weer levert geen direct gevaar op.    Er zijn geen waarschuwingen afgegeven.

METAR rapporten vliegvelden

   
EHRD - Rotterdam
Gewijzigd: 15-08-2018 05:25
Bewolking  
Bewolking  
   Wind: ZZW 14.8 km/h
Wind: ZZW 14.8 km/h
Temperatuur: 18°C
Dauwpunt: 16°C
Vochtigheid: 88%
Barometer: 1016 hPa
Bewolking: Overcast
Zicht: meer dan 10 km
Bewolking: Grotendeels bewolkt 1000 ft,
Bewolking 1300 ft
EHRD 150325Z AUTO 21008KT 180V240 9999 BKN010 OVC013 18/16 Q1016 BECMG OVC009
EHAM - Amsterdam
Gewijzigd: 15-08-2018 05:25
Gedeeltelijk bewolkt  
Gedeeltelijk bewolkt  
   Wind: ZZW 13 km/h
Wind: ZZW 13 km/h
Temperatuur: 18°C
Dauwpunt: 17°C
Vochtigheid: 94%
Barometer: 1016 hPa
Bewolking: Partly Cloudy
Zicht: meer dan 10 km
Bewolking: Gedeeltelijk bewolkt 1100 ft
EHAM 150325Z 20007KT 9999 SCT011 18/17 Q1016 TEMPO BKN011
EHEH - Eindhoven
Gewijzigd: 15-08-2018 05:25
Bewolking  
Bewolking  
   Wind: ZW 11.1 km/h
Wind: ZW 11.1 km/h
Temperatuur: 17°C
Dauwpunt: 14°C
Vochtigheid: 83%
Barometer: 1017 hPa
Bewolking: Overcast
Zicht: meer dan 10 km
Bewolking: Grotendeels bewolkt 4700 ft,
Bewolking 5300 ft
EHEH 150325Z AUTO 23006KT 190V250 9999 BKN047 OVC053 17/14 Q1017 BLU
EHBK - Maastricht
Gewijzigd: 15-08-2018 05:25
Gedeeltelijk bewolkt  
Gedeeltelijk bewolkt  
   Wind: ZZW 13 km/h
Wind: ZZW 13 km/h
Temperatuur: 15°C
Dauwpunt: 13°C
Vochtigheid: 88%
Barometer: 1018 hPa
Bewolking: Partly Cloudy
Zicht: meer dan 10 km
Bewolking: Gedeeltelijk bewolkt ft
EHBK 150325Z AUTO 21007KT 9999 NSC 15/13 Q1018
EDDL - Brussel
Gewijzigd: 15-08-2018 05:20
Helder  
Helder  
   Wind: ZW 9.3 km/h
Wind: ZW 9.3 km/h
Temperatuur: 17°C
Dauwpunt: 13°C
Vochtigheid: 77%
Barometer: 1018 hPa
Zicht: meer dan 10 km
Bewolking: Helder ft
EDDL 150320Z 22005KT CAVOK 17/13 Q1018 NOSIG
EBOS - Dusseldorf
Gewijzigd: 15-08-2018 05:20
Grotendeels bewolkt  
Grotendeels bewolkt  
   Wind: ZW 13 km/h
Wind: ZW 13 km/h
Temperatuur: 17°C
Dauwpunt: 15°C
Vochtigheid: 88%
Barometer: 1018 hPa
Bewolking: Mostly Cloudy
Zicht: meer dan 10 km
Bewolking: Gedeeltelijk bewolkt 800 ft,
Grotendeels bewolkt 4500 ft
EBOS 150320Z 23007KT 9999 SCT008 BKN045 17/15 Q1018 TEMPO BKN008

Script ontwikkeld door  Saratoga-weather.org Aangepast voor de template door  Weerstation Leuven

U vindt ons ook hier:

Het Weer Aktueel

European Weather Network

Weather Underground

WeatherlinkIP

HAMweather, WeatherForYou, PWS Weather

Apparatuur in gebruik:

Weerstation
Davis VP2

Weerprogramma
Cumulus

Weercomputer
Zotac

Webleverancier
Quick Servers

Davis VP2

Cumulus

Zotac

Quick Servers